Omen, Texas
Current Conditions -  °F | °C
As of 9:13 AM on Friday 19 Dec 2014 (Local Time) from KTYR Reporting Station
Light Rain Light Rain  
Wind Chill: 41°   Ceiling: 400
Heat Index: 47°   Visibility: 4mi
Dew Point: 45°   Wind: 13mph
Humidity: 93%   Direction: 60°ENE
Pressure: 30.17"   Gusts: NA
Location:  32.3665°N, 95.1299°W
Report Text: KTYR 191513Z 06011KT 4SM -RA BR BKN004 BKN010 OVC075 08/07 A3017 RMK AO2 P0003 T00830072
Loading
Personal Weather Stations






























Interactive Weather Map New forecast layout! Learn more

10-Day Weather Forecast

Advertisements
Track Severe Weather on mobile